createdAt,value
2023-05-24T00:00:47.277Z,59.76
2023-05-24T00:03:31.048Z,60.08
2023-05-24T00:05:59.310Z,60.51
2023-05-24T00:08:27.527Z,60.77
2023-05-24T00:10:55.432Z,61.22
2023-05-24T00:13:23.346Z,61.59
2023-05-24T00:15:51.621Z,61.68
2023-05-24T00:18:19.639Z,61.98
2023-05-24T00:20:47.786Z,62.87
2023-05-24T00:23:16.133Z,64.21
2023-05-24T00:25:44.153Z,63.72
2023-05-24T00:28:12.032Z,62.92
2023-05-24T00:30:40.137Z,62.22
2023-05-24T00:33:08.292Z,61.37
2023-05-24T00:35:36.296Z,59.90
2023-05-24T00:38:04.291Z,58.78
2023-05-24T00:40:32.124Z,58.85
2023-05-24T00:43:00.206Z,59.29
2023-05-24T00:45:28.268Z,59.98
2023-05-24T00:47:56.592Z,60.40
2023-05-24T00:50:24.610Z,60.91
2023-05-24T00:52:52.819Z,61.17
2023-05-24T00:55:21.019Z,61.57
2023-05-24T00:57:52.447Z,61.80
2023-05-24T01:00:20.900Z,62.87
2023-05-24T01:02:51.467Z,64.13
2023-05-24T01:05:19.963Z,63.54
2023-05-24T01:08:10.360Z,62.62
2023-05-24T01:11:17.179Z,62.32
2023-05-24T01:13:59.400Z,61.93
2023-05-24T01:16:39.390Z,59.89
2023-05-24T01:19:50.082Z,58.39
2023-05-24T01:22:32.539Z,58.37
2023-05-24T01:25:39.302Z,59.09
2023-05-24T01:28:11.430Z,59.46
2023-05-24T01:30:42.091Z,60.12
2023-05-24T01:33:10.938Z,60.76
2023-05-24T01:35:42.405Z,61.17
2023-05-24T01:38:14.563Z,61.65
2023-05-24T01:40:43.630Z,62.81
2023-05-24T01:43:23.365Z,63.94
2023-05-24T01:45:57.025Z,63.84
2023-05-24T01:48:49.002Z,63.12
2023-05-24T01:51:22.676Z,62.63
2023-05-24T01:53:52.433Z,61.67
2023-05-24T01:56:22.084Z,60.25
2023-05-24T01:58:52.827Z,58.84
2023-05-24T02:01:21.738Z,58.97
2023-05-24T02:03:51.174Z,59.49
2023-05-24T02:06:19.105Z,59.95
2023-05-24T02:08:47.045Z,60.43
2023-05-24T02:11:14.945Z,60.86
2023-05-24T02:13:42.789Z,61.32
2023-05-24T02:16:10.890Z,61.70
2023-05-24T02:18:38.963Z,63.04
2023-05-24T02:21:06.922Z,64.34
2023-05-24T02:23:34.877Z,63.81
2023-05-24T02:26:02.868Z,63.11
2023-05-24T02:28:32.437Z,62.70
2023-05-24T02:31:00.713Z,62.06
2023-05-24T02:33:29.986Z,61.51
2023-05-24T02:35:58.092Z,60.22
2023-05-24T02:38:26.612Z,58.88
2023-05-24T02:40:54.730Z,59.35
2023-05-24T02:43:22.621Z,59.90
2023-05-24T02:45:50.830Z,60.37
2023-05-24T02:48:19.051Z,60.71
2023-05-24T02:50:47.077Z,61.33
2023-05-24T02:53:15.106Z,62.52
2023-05-24T02:55:44.285Z,64.10
2023-05-24T02:58:13.827Z,63.77
2023-05-24T03:00:43.115Z,63.03
2023-05-24T03:03:11.521Z,62.14
2023-05-24T03:05:39.883Z,61.27
2023-05-24T03:08:08.080Z,59.88
2023-05-24T03:10:36.771Z,58.73
2023-05-24T03:13:04.603Z,59.15
2023-05-24T03:15:32.679Z,59.83
2023-05-24T03:18:01.016Z,60.47
2023-05-24T03:20:29.465Z,61.19
2023-05-24T03:22:57.519Z,62.38
2023-05-24T03:25:27.606Z,63.79
2023-05-24T03:27:55.508Z,63.53
2023-05-24T03:30:23.545Z,62.85
2023-05-24T03:32:56.402Z,62.24
2023-05-24T03:35:25.043Z,61.61
2023-05-24T03:37:53.520Z,61.07
2023-05-24T03:40:22.053Z,59.61
2023-05-24T03:42:56.212Z,58.40
2023-05-24T03:45:39.345Z,58.54
2023-05-24T03:48:08.208Z,59.31
2023-05-24T03:50:36.380Z,59.76
2023-05-24T03:53:05.042Z,60.42
2023-05-24T03:55:32.964Z,60.97
2023-05-24T03:58:02.081Z,61.49
2023-05-24T04:00:30.128Z,62.43
2023-05-24T04:02:58.380Z,63.48
2023-05-24T04:05:29.915Z,63.04
2023-05-24T04:07:58.093Z,62.38
2023-05-24T04:10:26.427Z,61.18
2023-05-24T04:12:54.334Z,59.67
2023-05-24T04:15:23.208Z,58.28
2023-05-24T04:17:55.368Z,58.54
2023-05-24T04:20:25.823Z,59.03
2023-05-24T04:22:54.242Z,59.47
2023-05-24T04:25:22.848Z,59.82
2023-05-24T04:27:51.088Z,60.20
2023-05-24T04:30:19.736Z,60.56
2023-05-24T04:32:48.740Z,60.97
2023-05-24T04:35:16.963Z,61.40
2023-05-24T04:37:45.104Z,62.43
2023-05-24T04:40:13.074Z,63.77
2023-05-24T04:42:41.034Z,63.53
2023-05-24T04:45:09.845Z,62.73
2023-05-24T04:47:37.841Z,61.86
2023-05-24T04:50:06.488Z,61.11
2023-05-24T04:52:36.517Z,59.89
2023-05-24T04:55:05.046Z,58.52
2023-05-24T04:57:32.990Z,58.72
2023-05-24T05:00:01.047Z,59.35
2023-05-24T05:02:29.186Z,59.99
2023-05-24T05:04:57.268Z,60.27
2023-05-24T05:07:25.193Z,60.59
2023-05-24T05:09:53.111Z,61.16
2023-05-24T05:12:20.939Z,61.65
2023-05-24T05:14:48.963Z,61.70
2023-05-24T05:17:18.232Z,62.46
2023-05-24T05:19:46.179Z,63.88
2023-05-24T05:22:14.529Z,63.51
2023-05-24T05:24:42.540Z,62.57
2023-05-24T05:27:10.523Z,61.78
2023-05-24T05:29:38.382Z,61.00
2023-05-24T05:32:06.744Z,58.40
2023-05-24T05:34:34.641Z,57.85
2023-05-24T05:37:02.998Z,58.18
2023-05-24T05:39:32.108Z,58.66
2023-05-24T05:42:02.636Z,59.00
2023-05-24T05:44:30.504Z,59.45
2023-05-24T05:46:58.525Z,59.93
2023-05-24T05:49:26.362Z,59.91
2023-05-24T05:51:54.952Z,60.46
2023-05-24T05:54:22.899Z,60.34
2023-05-24T05:56:52.372Z,61.14
2023-05-24T05:59:20.456Z,60.84
2023-05-24T06:01:49.298Z,60.57
2023-05-24T06:04:18.390Z,60.70
2023-05-24T06:06:49.818Z,60.96
2023-05-24T06:09:18.015Z,61.45
2023-05-24T06:11:46.086Z,60.96
2023-05-24T06:14:21.415Z,61.12
2023-05-24T06:16:49.517Z,61.77
2023-05-24T06:19:18.467Z,60.62
2023-05-24T06:21:48.493Z,61.57
2023-05-24T06:24:21.449Z,63.07
2023-05-24T06:26:52.295Z,63.42
2023-05-24T06:29:21.938Z,62.67
2023-05-24T06:31:51.010Z,62.27
2023-05-24T06:34:23.136Z,60.23
2023-05-24T06:36:53.214Z,56.35
2023-05-24T06:39:21.382Z,55.70
2023-05-24T06:41:51.473Z,55.61
2023-05-24T06:44:31.048Z,56.67
2023-05-24T06:46:59.403Z,56.06
2023-05-24T06:49:27.986Z,57.21
2023-05-24T06:51:56.174Z,55.95
2023-05-24T06:54:24.222Z,56.41
2023-05-24T06:56:52.077Z,52.09
2023-05-24T06:59:20.106Z,54.30
2023-05-24T07:01:49.592Z,55.41
2023-05-24T07:04:18.057Z,53.99
2023-05-24T07:06:46.206Z,55.59
2023-05-24T07:09:14.503Z,53.67
2023-05-24T07:11:42.366Z,54.19
2023-05-24T07:14:10.425Z,54.13
2023-05-24T07:16:38.460Z,53.52
2023-05-24T07:19:07.509Z,53.51
2023-05-24T07:21:36.187Z,53.48
2023-05-24T07:24:04.552Z,53.84
2023-05-24T07:26:32.625Z,53.73
2023-05-24T07:29:00.804Z,53.97
2023-05-24T07:31:31.597Z,53.22
2023-05-24T07:33:59.615Z,51.51
2023-05-24T07:36:34.877Z,53.08
2023-05-24T07:39:06.195Z,51.57
2023-05-24T07:41:34.067Z,50.62
2023-05-24T07:44:02.450Z,50.58
2023-05-24T07:46:30.353Z,50.39
2023-05-24T07:48:58.889Z,47.59
2023-05-24T07:51:26.939Z,48.38
2023-05-24T07:53:55.034Z,48.56
2023-05-24T07:56:23.956Z,48.57
2023-05-24T07:58:52.013Z,48.11
2023-05-24T08:01:20.240Z,48.68
2023-05-24T08:03:48.684Z,47.63
2023-05-24T08:06:16.772Z,45.90
2023-05-24T08:08:46.121Z,45.51
2023-05-24T08:11:14.190Z,46.38
2023-05-24T08:13:42.287Z,46.15
2023-05-24T08:16:10.585Z,46.01
2023-05-24T08:18:38.498Z,45.08
2023-05-24T08:21:06.478Z,46.31
2023-05-24T08:23:34.559Z,44.12
2023-05-24T08:26:02.485Z,45.79
2023-05-24T08:28:30.413Z,45.11
2023-05-24T08:30:59.658Z,43.75
2023-05-24T08:33:29.224Z,44.55
2023-05-24T08:35:57.424Z,44.93
2023-05-24T08:38:25.427Z,44.85
2023-05-24T08:40:53.543Z,44.29
2023-05-24T08:43:22.940Z,44.17
2023-05-24T08:45:52.988Z,44.02
2023-05-24T08:48:22.700Z,43.78
2023-05-24T08:50:51.252Z,43.92
2023-05-24T08:53:23.782Z,44.00
2023-05-24T08:55:54.252Z,43.77
2023-05-24T08:58:22.613Z,43.83
2023-05-24T09:00:50.554Z,43.89
2023-05-24T09:03:19.577Z,43.99
2023-05-24T09:05:47.898Z,42.85
2023-05-24T09:08:18.243Z,43.15
2023-05-24T09:10:54.806Z,42.26
2023-05-24T09:13:25.354Z,42.02
2023-05-24T09:15:53.878Z,41.43
2023-05-24T09:18:22.120Z,41.95
2023-05-24T09:20:50.217Z,41.25
2023-05-24T09:23:18.959Z,41.92
2023-05-24T09:25:48.570Z,41.25
2023-05-24T09:28:21.840Z,41.94
2023-05-24T09:30:59.551Z,41.59
2023-05-24T09:33:32.842Z,41.31
2023-05-24T09:36:03.110Z,41.76
2023-05-24T09:38:31.386Z,41.43
2023-05-24T09:41:02.126Z,41.16
2023-05-24T09:43:31.995Z,40.96
2023-05-24T09:46:03.723Z,39.70
2023-05-24T09:48:32.340Z,40.74
2023-05-24T09:51:10.044Z,40.15
2023-05-24T09:53:38.831Z,40.32
2023-05-24T09:56:10.573Z,39.79
2023-05-24T09:58:39.768Z,40.14
2023-05-24T10:01:10.971Z,39.83
2023-05-24T10:03:39.243Z,39.46
2023-05-24T10:06:11.685Z,38.20
2023-05-24T10:08:40.511Z,37.67
2023-05-24T10:11:08.660Z,37.24
2023-05-24T10:13:37.049Z,37.38
2023-05-24T10:16:05.948Z,37.51
2023-05-24T10:18:34.207Z,37.57
2023-05-24T10:21:08.469Z,37.12
2023-05-24T10:23:38.960Z,37.76
2023-05-24T10:26:11.409Z,37.63
2023-05-24T10:28:43.547Z,36.91
2023-05-24T10:31:15.337Z,37.40
2023-05-24T10:33:45.245Z,37.52
2023-05-24T10:36:14.581Z,36.52
2023-05-24T10:38:43.803Z,37.01
2023-05-24T10:41:13.187Z,37.73
2023-05-24T10:44:00.672Z,37.87
2023-05-24T10:46:35.064Z,38.38
2023-05-24T10:49:04.641Z,38.73
2023-05-24T10:51:39.624Z,38.56
2023-05-24T10:54:13.156Z,38.62
2023-05-24T10:56:43.301Z,38.84
2023-05-24T10:59:28.316Z,39.52
2023-05-24T11:02:01.116Z,39.61
2023-05-24T11:04:34.435Z,39.62
2023-05-24T11:07:09.711Z,39.24
2023-05-24T11:09:57.464Z,38.87
2023-05-24T11:12:32.630Z,39.07
2023-05-24T11:15:03.087Z,39.87
2023-05-24T11:17:31.196Z,39.81
2023-05-24T11:20:00.865Z,39.71
2023-05-24T11:22:29.207Z,39.63
2023-05-24T11:24:57.921Z,39.34
2023-05-24T11:27:26.204Z,40.07
2023-05-24T11:29:54.440Z,40.32
2023-05-24T11:32:24.256Z,40.43
2023-05-24T11:34:52.461Z,40.57
2023-05-24T11:37:28.655Z,41.23
2023-05-24T11:40:05.189Z,41.02
2023-05-24T11:42:33.714Z,41.27
2023-05-24T11:45:01.699Z,41.56
2023-05-24T11:47:29.577Z,41.68
2023-05-24T11:49:57.467Z,41.86
2023-05-24T11:52:25.312Z,41.99
2023-05-24T11:54:55.143Z,41.98
2023-05-24T11:57:46.136Z,42.24
2023-05-24T12:00:17.425Z,42.84
2023-05-24T12:02:46.169Z,43.30
2023-05-24T12:05:14.614Z,43.09
2023-05-24T12:07:48.934Z,43.66
2023-05-24T12:10:16.890Z,42.87
2023-05-24T12:12:46.271Z,42.43
2023-05-24T12:15:15.050Z,42.70
2023-05-24T12:17:43.632Z,42.01
2023-05-24T12:20:13.013Z,42.23
2023-05-24T12:22:56.549Z,42.69
2023-05-24T12:25:27.204Z,42.37
2023-05-24T12:27:56.612Z,42.16
2023-05-24T12:30:26.789Z,42.16
2023-05-24T12:32:55.024Z,43.46
2023-05-24T12:35:23.755Z,42.53
2023-05-24T12:38:00.116Z,41.00
2023-05-24T12:40:28.307Z,39.72
2023-05-24T12:42:58.297Z,41.02
2023-05-24T12:45:27.934Z,41.37
2023-05-24T12:47:57.874Z,41.59
2023-05-24T12:50:27.260Z,41.07
2023-05-24T12:52:55.153Z,40.92
2023-05-24T12:55:27.679Z,41.19
2023-05-24T12:57:56.698Z,42.36
2023-05-24T13:00:30.184Z,42.47
2023-05-24T13:02:59.676Z,41.99
2023-05-24T13:05:30.011Z,41.35
2023-05-24T13:07:58.194Z,40.67
2023-05-24T13:10:27.583Z,40.34
2023-05-24T13:12:56.445Z,39.96
2023-05-24T13:15:27.357Z,40.40
2023-05-24T13:17:56.269Z,40.00
2023-05-24T13:20:25.077Z,40.27
2023-05-24T13:22:53.674Z,39.67
2023-05-24T13:25:22.757Z,40.04
2023-05-24T13:27:51.047Z,39.53
2023-05-24T13:30:27.399Z,39.79
2023-05-24T13:32:56.001Z,39.36
2023-05-24T13:35:24.563Z,38.82
2023-05-24T13:37:54.399Z,39.39
2023-05-24T13:40:25.103Z,40.22
2023-05-24T13:42:53.918Z,40.30
2023-05-24T13:45:21.837Z,40.50
2023-05-24T13:47:50.482Z,41.04
2023-05-24T13:50:20.510Z,40.92
2023-05-24T13:52:48.466Z,40.42
2023-05-24T13:55:17.371Z,40.65
2023-05-24T13:57:51.650Z,43.04
2023-05-24T14:00:21.352Z,44.58
2023-05-24T14:02:49.920Z,45.53
2023-05-24T14:05:27.458Z,46.03
2023-05-24T14:08:00.343Z,46.14
2023-05-24T14:10:28.412Z,46.75
2023-05-24T14:13:16.297Z,47.00
2023-05-24T14:15:44.979Z,47.31
2023-05-24T14:18:14.427Z,48.05
2023-05-24T14:20:42.415Z,48.39
2023-05-24T14:23:10.775Z,49.35
2023-05-24T14:25:38.782Z,50.00
2023-05-24T14:28:08.732Z,50.75
2023-05-24T14:30:38.126Z,51.61
2023-05-24T14:33:11.521Z,52.89
2023-05-24T14:35:40.202Z,53.20
2023-05-24T14:38:10.320Z,53.92
2023-05-24T14:40:40.163Z,54.41
2023-05-24T14:43:10.904Z,54.76
2023-05-24T14:45:42.164Z,54.81
2023-05-24T14:48:11.830Z,54.98
2023-05-24T14:50:41.266Z,55.91
2023-05-24T14:53:12.560Z,56.15
2023-05-24T14:55:43.151Z,56.24
2023-05-24T14:58:13.186Z,56.68
2023-05-24T15:00:43.210Z,56.95
2023-05-24T15:03:13.122Z,57.46
2023-05-24T15:05:44.443Z,57.35
2023-05-24T15:08:12.818Z,56.47
2023-05-24T15:10:40.986Z,57.39
2023-05-24T15:13:09.261Z,57.45
2023-05-24T15:15:37.307Z,56.48
2023-05-24T15:18:05.664Z,57.05
2023-05-24T15:20:35.833Z,57.48
2023-05-24T15:23:04.403Z,58.29
2023-05-24T15:25:32.545Z,58.70
2023-05-24T15:28:01.463Z,58.83
2023-05-24T15:30:30.029Z,59.50
2023-05-24T15:32:57.980Z,59.87
2023-05-24T15:35:27.193Z,60.20
2023-05-24T15:37:55.112Z,60.44
2023-05-24T15:40:24.664Z,60.61
2023-05-24T15:42:53.297Z,60.81
2023-05-24T15:45:21.604Z,60.89
2023-05-24T15:47:49.857Z,61.50
2023-05-24T15:50:23.631Z,60.83
2023-05-24T15:52:56.696Z,59.46
2023-05-24T15:55:24.569Z,58.77
2023-05-24T15:57:52.505Z,58.39
2023-05-24T16:00:20.606Z,57.41
2023-05-24T16:02:48.821Z,57.17
2023-05-24T16:05:19.794Z,57.69
2023-05-24T16:07:49.034Z,56.68
2023-05-24T16:10:17.690Z,56.38
2023-05-24T16:12:46.247Z,56.29
2023-05-24T16:15:15.071Z,56.34
2023-05-24T16:17:49.791Z,56.31
2023-05-24T16:20:19.854Z,56.42
2023-05-24T16:22:49.865Z,56.66
2023-05-24T16:25:17.799Z,56.29
2023-05-24T16:27:53.130Z,56.81
2023-05-24T16:30:22.065Z,57.11
2023-05-24T16:32:50.548Z,56.84
2023-05-24T16:35:18.542Z,56.19
2023-05-24T16:37:48.293Z,55.56
2023-05-24T16:40:16.641Z,55.26
2023-05-24T16:42:44.656Z,54.97
2023-05-24T16:45:15.284Z,54.66
2023-05-24T16:47:45.508Z,54.77
2023-05-24T16:50:20.126Z,55.33
2023-05-24T16:52:52.319Z,54.85
2023-05-24T16:55:20.585Z,55.46
2023-05-24T16:57:48.951Z,55.06
2023-05-24T17:00:17.725Z,54.83
2023-05-24T17:02:45.932Z,54.90
2023-05-24T17:05:14.305Z,55.13
2023-05-24T17:07:43.096Z,55.31
2023-05-24T17:10:11.685Z,55.53
2023-05-24T17:12:39.610Z,55.76
2023-05-24T17:15:08.400Z,55.96
2023-05-24T17:17:36.459Z,56.73
2023-05-24T17:20:05.461Z,57.30
2023-05-24T17:22:33.550Z,57.77
2023-05-24T17:25:01.419Z,58.51
2023-05-24T17:27:29.271Z,58.31
2023-05-24T17:29:57.409Z,58.90
2023-05-24T17:32:25.800Z,59.21
2023-05-24T17:34:53.955Z,60.42
2023-05-24T17:37:21.955Z,60.94
2023-05-24T17:39:52.497Z,61.73
2023-05-24T17:42:20.645Z,61.92
2023-05-24T17:44:48.799Z,62.00
2023-05-24T17:47:16.748Z,62.71
2023-05-24T17:49:44.801Z,61.03
2023-05-24T17:52:14.769Z,59.94
2023-05-24T17:54:42.833Z,59.78
2023-05-24T17:57:11.218Z,60.66
2023-05-24T17:59:39.124Z,60.77
2023-05-24T18:02:07.161Z,61.82
2023-05-24T18:04:35.652Z,63.53
2023-05-24T18:07:03.884Z,63.13
2023-05-24T18:09:32.034Z,62.03
2023-05-24T18:11:59.862Z,60.96
2023-05-24T18:14:28.852Z,59.74
2023-05-24T18:16:58.671Z,60.17
2023-05-24T18:19:28.556Z,60.60
2023-05-24T18:21:57.013Z,61.37
2023-05-24T18:24:24.899Z,62.12
2023-05-24T18:26:53.157Z,63.83
2023-05-24T18:29:21.085Z,63.82
2023-05-24T18:31:48.981Z,63.24
2023-05-24T18:34:17.286Z,62.25
2023-05-24T18:36:45.229Z,61.48
2023-05-24T18:39:13.345Z,59.42
2023-05-24T18:41:41.852Z,59.50
2023-05-24T18:44:09.827Z,60.14
2023-05-24T18:46:37.851Z,61.38
2023-05-24T18:49:08.375Z,62.58
2023-05-24T18:51:37.556Z,63.02
2023-05-24T18:54:05.747Z,62.04
2023-05-24T18:56:34.027Z,61.44
2023-05-24T18:59:01.971Z,59.84
2023-05-24T19:01:30.252Z,59.72
2023-05-24T19:03:58.262Z,60.35
2023-05-24T19:06:26.919Z,60.44
2023-05-24T19:08:54.935Z,61.23
2023-05-24T19:11:23.249Z,61.48
2023-05-24T19:13:51.080Z,62.00
2023-05-24T19:16:19.043Z,63.03
2023-05-24T19:18:47.296Z,64.28
2023-05-24T19:21:15.563Z,63.39
2023-05-24T19:23:43.484Z,62.51
2023-05-24T19:26:11.558Z,61.80
2023-05-24T19:28:41.776Z,61.48
2023-05-24T19:31:09.985Z,61.03
2023-05-24T19:33:48.479Z,59.57
2023-05-24T19:36:25.999Z,58.79
2023-05-24T19:38:54.792Z,59.34
2023-05-24T19:41:22.692Z,59.93
2023-05-24T19:43:50.767Z,60.48
2023-05-24T19:46:18.969Z,61.26
2023-05-24T19:48:47.058Z,62.74
2023-05-24T19:51:15.798Z,63.53
2023-05-24T19:53:44.514Z,62.95
2023-05-24T19:56:12.650Z,62.03
2023-05-24T19:58:40.761Z,61.90
2023-05-24T20:01:08.770Z,61.20
2023-05-24T20:03:36.710Z,60.87
2023-05-24T20:06:04.862Z,59.95
2023-05-24T20:08:32.889Z,59.16
2023-05-24T20:11:01.065Z,59.71
2023-05-24T20:13:31.809Z,60.44
2023-05-24T20:15:59.741Z,61.34
2023-05-24T20:18:27.906Z,62.45
2023-05-24T20:20:57.505Z,64.67
2023-05-24T20:23:27.616Z,64.43
2023-05-24T20:25:56.117Z,63.81
2023-05-24T20:28:30.667Z,63.14
2023-05-24T20:30:59.923Z,62.46
2023-05-24T20:33:28.189Z,61.73
2023-05-24T20:35:56.502Z,61.81
2023-05-24T20:38:24.666Z,61.57
2023-05-24T20:40:52.673Z,61.36
2023-05-24T20:43:20.787Z,61.12
2023-05-24T20:45:48.846Z,60.28
2023-05-24T20:48:16.970Z,59.38
2023-05-24T20:50:45.035Z,59.91
2023-05-24T20:53:13.135Z,60.52
2023-05-24T20:55:41.375Z,61.56
2023-05-24T20:58:09.828Z,63.58
2023-05-24T21:00:39.720Z,64.63
2023-05-24T21:03:08.449Z,64.11
2023-05-24T21:05:38.242Z,63.93
2023-05-24T21:08:06.839Z,63.43
2023-05-24T21:10:35.399Z,63.03
2023-05-24T21:13:03.823Z,62.22
2023-05-24T21:15:31.990Z,62.23
2023-05-24T21:18:00.008Z,62.11
2023-05-24T21:20:28.053Z,61.76
2023-05-24T21:22:56.016Z,61.54
2023-05-24T21:25:24.574Z,61.60
2023-05-24T21:27:52.617Z,61.50
2023-05-24T21:30:20.922Z,61.28
2023-05-24T21:32:48.845Z,61.06
2023-05-24T21:35:16.953Z,61.00
2023-05-24T21:37:45.066Z,61.17
2023-05-24T21:40:13.288Z,60.80
2023-05-24T21:42:41.243Z,60.11
2023-05-24T21:45:09.772Z,59.21
2023-05-24T21:47:37.741Z,60.31
2023-05-24T21:50:07.321Z,60.95
2023-05-24T21:52:35.331Z,61.51
2023-05-24T21:55:03.574Z,63.45
2023-05-24T21:57:31.444Z,65.44
2023-05-24T21:59:59.374Z,65.21
2023-05-24T22:02:27.396Z,64.29
2023-05-24T22:04:55.433Z,63.99
2023-05-24T22:07:23.403Z,63.50
2023-05-24T22:09:51.297Z,63.23
2023-05-24T22:12:19.145Z,62.99
2023-05-24T22:14:47.035Z,62.34
2023-05-24T22:17:16.624Z,62.26
2023-05-24T22:19:44.683Z,62.21
2023-05-24T22:22:12.752Z,61.94
2023-05-24T22:24:41.067Z,61.47
2023-05-24T22:27:13.817Z,61.79
2023-05-24T22:29:43.936Z,61.67
2023-05-24T22:32:11.946Z,61.50
2023-05-24T22:34:40.623Z,61.33
2023-05-24T22:37:08.531Z,61.20
2023-05-24T22:39:36.384Z,61.48
2023-05-24T22:42:04.858Z,61.28
2023-05-24T22:44:32.673Z,61.17
2023-05-24T22:47:02.186Z,61.27
2023-05-24T22:49:34.346Z,61.00
2023-05-24T22:52:02.715Z,61.29
2023-05-24T22:54:30.734Z,61.40
2023-05-24T22:56:59.177Z,61.30
2023-05-24T22:59:27.013Z,60.96
2023-05-24T23:01:54.998Z,61.09
2023-05-24T23:04:23.110Z,61.01
2023-05-24T23:06:53.225Z,61.22
2023-05-24T23:09:34.915Z,61.32
2023-05-24T23:12:08.066Z,61.57
2023-05-24T23:14:41.639Z,61.64
2023-05-24T23:17:10.534Z,61.43
2023-05-24T23:19:42.624Z,61.40
2023-05-24T23:22:24.055Z,61.81
2023-05-24T23:24:52.647Z,61.61
2023-05-24T23:27:21.175Z,61.69
2023-05-24T23:29:49.022Z,62.08
2023-05-24T23:32:17.035Z,61.91
2023-05-24T23:34:44.922Z,61.90
2023-05-24T23:37:12.970Z,61.92
2023-05-24T23:39:40.784Z,62.02
2023-05-24T23:42:08.599Z,62.03
2023-05-24T23:44:36.698Z,61.87
2023-05-24T23:47:05.212Z,61.90
2023-05-24T23:49:33.548Z,62.15
2023-05-24T23:52:01.416Z,62.23
2023-05-24T23:54:29.233Z,62.89
2023-05-24T23:56:57.072Z,62.19
2023-05-24T23:59:24.946Z,62.37
